createdAt,value
2023-02-15T00:00:16.013Z,59.00
2023-02-15T00:01:18.478Z,59.83
2023-02-15T00:02:21.177Z,54.30
2023-02-15T00:03:23.895Z,62.92
2023-02-15T00:04:46.929Z,51.08
2023-02-15T00:05:49.997Z,53.28
2023-02-15T00:06:52.450Z,63.83
2023-02-15T00:07:54.953Z,62.78
2023-02-15T00:08:57.515Z,69.38
2023-02-15T00:09:59.986Z,60.67
2023-02-15T00:11:09.225Z,57.38
2023-02-15T00:12:11.814Z,65.47
2023-02-15T00:13:14.253Z,55.03
2023-02-15T00:14:24.637Z,56.60
2023-02-15T00:15:27.186Z,55.83
2023-02-15T00:16:29.805Z,62.50
2023-02-15T00:17:32.334Z,61.58
2023-02-15T00:18:35.069Z,59.08
2023-02-15T00:19:37.723Z,52.42
2023-02-15T00:20:40.196Z,65.75
2023-02-15T00:21:43.321Z,59.92
2023-02-15T00:22:46.030Z,56.75
2023-02-15T00:23:48.487Z,56.47
2023-02-15T00:24:51.218Z,62.35
2023-02-15T00:25:53.744Z,58.53
2023-02-15T00:26:56.197Z,57.92
2023-02-15T00:27:58.756Z,61.40
2023-02-15T00:29:02.488Z,62.08
2023-02-15T00:30:05.581Z,58.10
2023-02-15T00:31:12.442Z,55.45
2023-02-15T00:32:14.960Z,58.28
2023-02-15T00:33:17.381Z,53.33
2023-02-15T00:34:26.499Z,55.63
2023-02-15T00:35:28.919Z,54.25
2023-02-15T00:36:31.457Z,53.33
2023-02-15T00:38:30.203Z,48.08
2023-02-15T00:39:38.449Z,53.22
2023-02-15T00:40:42.084Z,53.42
2023-02-15T00:41:45.156Z,55.03
2023-02-15T00:42:47.643Z,47.92
2023-02-15T00:43:51.120Z,49.72
2023-02-15T00:44:53.661Z,45.05
2023-02-15T00:45:57.021Z,52.20
2023-02-15T00:46:59.448Z,50.85
2023-02-15T00:48:02.018Z,54.78
2023-02-15T00:49:04.718Z,55.80
2023-02-15T00:50:07.710Z,58.05
2023-02-15T00:51:10.171Z,51.35
2023-02-15T00:52:14.934Z,51.85
2023-02-15T00:53:17.750Z,50.88
2023-02-15T00:54:20.355Z,61.53
2023-02-15T00:55:22.934Z,46.60
2023-02-15T00:56:25.599Z,53.58
2023-02-15T00:57:28.110Z,52.42
2023-02-15T00:58:30.534Z,51.03
2023-02-15T00:59:32.985Z,53.58
2023-02-15T01:00:36.181Z,45.90
2023-02-15T01:01:38.934Z,51.95
2023-02-15T01:02:41.408Z,51.25
2023-02-15T01:03:44.107Z,49.95
2023-02-15T01:04:46.598Z,50.90
2023-02-15T01:05:50.283Z,51.88
2023-02-15T01:06:52.708Z,50.83
2023-02-15T01:07:55.298Z,46.92
2023-02-15T01:08:57.867Z,59.05
2023-02-15T01:10:00.294Z,48.60
2023-02-15T01:11:12.391Z,51.22
2023-02-15T01:12:14.981Z,48.45
2023-02-15T01:13:18.248Z,51.40
2023-02-15T01:14:20.808Z,47.83
2023-02-15T01:15:24.088Z,49.97
2023-02-15T01:16:28.939Z,50.40
2023-02-15T01:17:33.034Z,47.35
2023-02-15T01:18:36.724Z,43.50
2023-02-15T01:19:39.239Z,51.85
2023-02-15T01:20:42.744Z,49.30
2023-02-15T01:21:45.153Z,47.15
2023-02-15T01:22:47.797Z,44.03
2023-02-15T01:23:50.571Z,42.42
2023-02-15T01:24:53.364Z,53.67
2023-02-15T01:25:55.937Z,45.42
2023-02-15T01:26:58.385Z,42.83
2023-02-15T01:28:03.897Z,40.90
2023-02-15T01:29:06.495Z,47.30
2023-02-15T01:30:10.004Z,46.63
2023-02-15T01:31:15.065Z,43.90
2023-02-15T01:32:17.668Z,43.55
2023-02-15T01:33:20.191Z,47.67
2023-02-15T01:34:22.678Z,47.05
2023-02-15T01:35:25.579Z,43.08
2023-02-15T01:36:31.552Z,43.28
2023-02-15T01:37:35.090Z,44.17
2023-02-15T01:39:33.520Z,46.28
2023-02-15T01:41:15.120Z,40.50
2023-02-15T01:42:25.373Z,50.40
2023-02-15T01:43:42.303Z,43.80
2023-02-15T01:44:54.606Z,47.67
2023-02-15T01:45:57.228Z,48.78
2023-02-15T01:46:59.679Z,43.22
2023-02-15T01:48:07.703Z,47.78
2023-02-15T01:49:14.633Z,47.13
2023-02-15T01:50:22.221Z,42.38
2023-02-15T01:51:26.577Z,44.65
2023-02-15T01:52:29.808Z,51.47
2023-02-15T01:53:42.935Z,52.63
2023-02-15T01:54:46.498Z,50.08
2023-02-15T01:55:51.246Z,43.67
2023-02-15T01:56:55.406Z,45.63
2023-02-15T01:57:58.023Z,44.78
2023-02-15T01:59:03.718Z,39.28
2023-02-15T02:00:08.623Z,44.05
2023-02-15T02:01:17.526Z,43.85
2023-02-15T02:02:25.362Z,47.65
2023-02-15T02:03:37.911Z,43.50
2023-02-15T02:04:46.298Z,40.78
2023-02-15T02:05:48.726Z,47.05
2023-02-15T02:06:52.104Z,51.70
2023-02-15T02:07:57.518Z,43.10
2023-02-15T02:09:00.387Z,40.70
2023-02-15T02:10:05.082Z,40.60
2023-02-15T02:11:15.911Z,46.83
2023-02-15T02:12:22.931Z,37.22
2023-02-15T02:13:25.892Z,44.00
2023-02-15T02:14:28.434Z,36.00
2023-02-15T02:15:50.920Z,46.78
2023-02-15T02:16:53.746Z,42.20
2023-02-15T02:18:09.508Z,37.92
2023-02-15T02:19:28.592Z,42.85
2023-02-15T02:21:10.693Z,43.60
2023-02-15T02:22:27.805Z,41.63
2023-02-15T02:23:39.310Z,40.17
2023-02-15T02:24:47.543Z,43.85
2023-02-15T02:26:09.809Z,43.67
2023-02-15T02:29:10.221Z,38.30
2023-02-15T02:30:34.108Z,49.10
2023-02-15T02:31:45.450Z,35.42
2023-02-15T02:33:19.292Z,43.90
2023-02-15T02:34:31.567Z,45.53
2023-02-15T02:35:47.885Z,39.85
2023-02-15T02:37:21.944Z,40.22
2023-02-15T02:38:55.940Z,40.63
2023-02-15T02:40:00.997Z,50.50
2023-02-15T02:41:18.836Z,51.75
2023-02-15T02:42:41.979Z,50.70
2023-02-15T02:43:44.394Z,50.97
2023-02-15T02:45:06.854Z,45.97
2023-02-15T02:46:31.829Z,44.13
2023-02-15T02:47:42.822Z,53.65
2023-02-15T02:48:45.502Z,48.85
2023-02-15T02:49:48.738Z,48.72
2023-02-15T02:50:51.259Z,47.47
2023-02-15T02:52:00.210Z,44.28
2023-02-15T02:53:02.692Z,53.70
2023-02-15T02:54:07.074Z,41.65
2023-02-15T02:55:18.153Z,51.75
2023-02-15T02:56:23.561Z,48.33
2023-02-15T02:57:28.344Z,44.30
2023-02-15T02:58:33.036Z,44.05
2023-02-15T02:59:39.771Z,44.15
2023-02-15T03:00:49.901Z,41.90
2023-02-15T03:02:08.971Z,50.38
2023-02-15T03:03:16.171Z,44.00
2023-02-15T03:04:31.678Z,46.90
2023-02-15T03:05:36.442Z,45.75
2023-02-15T03:06:51.777Z,51.08
2023-02-15T03:07:55.490Z,48.53
2023-02-15T03:09:15.481Z,46.42
2023-02-15T03:10:19.633Z,48.15
2023-02-15T03:11:22.137Z,54.42
2023-02-15T03:12:32.457Z,46.95
2023-02-15T03:13:35.780Z,48.55
2023-02-15T03:14:39.441Z,48.75
2023-02-15T03:16:02.492Z,46.70
2023-02-15T03:17:07.331Z,44.85
2023-02-15T03:18:10.272Z,48.53
2023-02-15T03:19:32.652Z,48.72
2023-02-15T03:20:38.105Z,43.10
2023-02-15T03:21:58.663Z,44.55
2023-02-15T03:23:04.537Z,43.35
2023-02-15T03:24:16.315Z,47.60
2023-02-15T03:25:43.180Z,41.58
2023-02-15T03:26:48.888Z,50.20
2023-02-15T03:28:00.726Z,44.33
2023-02-15T03:29:05.142Z,44.95
2023-02-15T03:30:08.851Z,39.97
2023-02-15T03:31:13.581Z,40.08
2023-02-15T03:32:17.082Z,44.65
2023-02-15T03:33:20.690Z,41.50
2023-02-15T03:34:23.296Z,46.55
2023-02-15T03:35:27.890Z,50.90
2023-02-15T03:36:33.585Z,40.10
2023-02-15T03:37:43.234Z,39.63
2023-02-15T03:39:03.809Z,44.47
2023-02-15T03:40:24.902Z,38.78
2023-02-15T03:41:31.788Z,41.60
2023-02-15T03:42:36.927Z,41.00
2023-02-15T03:43:46.434Z,43.63
2023-02-15T03:44:55.658Z,46.95
2023-02-15T03:46:07.797Z,45.05
2023-02-15T03:47:15.345Z,39.38
2023-02-15T03:48:18.615Z,41.97
2023-02-15T03:49:38.661Z,45.15
2023-02-15T03:50:59.834Z,42.38
2023-02-15T03:52:03.723Z,44.17
2023-02-15T03:53:09.057Z,46.85
2023-02-15T03:54:40.203Z,41.97
2023-02-15T03:55:42.828Z,42.17
2023-02-15T03:57:05.235Z,38.20
2023-02-15T03:58:26.880Z,42.67
2023-02-15T03:59:48.064Z,42.13
2023-02-15T04:01:23.349Z,45.38
2023-02-15T04:02:29.240Z,45.42
2023-02-15T04:04:06.661Z,42.17
2023-02-15T04:05:09.168Z,42.42
2023-02-15T04:06:11.615Z,45.17
2023-02-15T04:07:14.358Z,45.17
2023-02-15T04:08:19.790Z,45.47
2023-02-15T04:09:41.273Z,45.80
2023-02-15T04:10:58.986Z,58.75
2023-02-15T04:12:02.908Z,57.05
2023-02-15T04:13:05.425Z,46.63
2023-02-15T04:14:26.764Z,46.47
2023-02-15T04:15:47.839Z,49.58
2023-02-15T04:16:50.981Z,42.05
2023-02-15T04:17:53.851Z,50.25
2023-02-15T04:19:14.536Z,46.53
2023-02-15T04:20:35.478Z,46.67
2023-02-15T04:21:56.476Z,41.40
2023-02-15T04:24:38.608Z,42.03
2023-02-15T04:25:41.104Z,46.08
2023-02-15T04:26:43.939Z,43.10
2023-02-15T04:27:49.125Z,47.20
2023-02-15T04:28:51.882Z,47.25
2023-02-15T04:29:54.495Z,46.60
2023-02-15T04:30:57.144Z,41.53
2023-02-15T04:32:02.247Z,47.92
2023-02-15T04:33:04.796Z,43.80
2023-02-15T04:34:07.455Z,47.85
2023-02-15T04:35:10.541Z,44.75
2023-02-15T04:36:12.946Z,48.28
2023-02-15T04:37:15.351Z,50.17
2023-02-15T04:38:18.245Z,45.00
2023-02-15T04:39:20.844Z,41.78
2023-02-15T04:40:23.317Z,43.95
2023-02-15T04:41:25.806Z,42.13
2023-02-15T04:42:28.334Z,39.97
2023-02-15T04:43:30.819Z,38.53
2023-02-15T04:44:33.333Z,43.22
2023-02-15T04:45:35.742Z,39.33
2023-02-15T04:46:38.601Z,48.22
2023-02-15T04:47:41.073Z,36.60
2023-02-15T04:48:44.669Z,37.22
2023-02-15T04:49:47.194Z,40.72
2023-02-15T04:50:49.640Z,43.70
2023-02-15T04:51:52.070Z,43.42
2023-02-15T04:52:54.571Z,40.22
2023-02-15T04:53:57.782Z,45.25
2023-02-15T04:55:00.363Z,39.38
2023-02-15T04:56:03.679Z,41.10
2023-02-15T04:57:07.245Z,41.15
2023-02-15T04:58:09.875Z,39.03
2023-02-15T04:59:12.867Z,40.33
2023-02-15T05:00:15.669Z,48.67
2023-02-15T05:01:18.390Z,41.50
2023-02-15T05:02:21.468Z,44.97
2023-02-15T05:03:24.132Z,42.97
2023-02-15T05:04:29.180Z,46.95
2023-02-15T05:05:31.964Z,45.58
2023-02-15T05:06:34.417Z,45.17
2023-02-15T05:07:36.897Z,44.63
2023-02-15T05:08:39.393Z,46.33
2023-02-15T05:09:41.858Z,43.83
2023-02-15T05:10:44.332Z,47.05
2023-02-15T05:11:47.170Z,42.30
2023-02-15T05:12:49.770Z,38.97
2023-02-15T05:13:52.410Z,37.42
2023-02-15T05:14:54.827Z,41.90
2023-02-15T05:15:57.285Z,38.30
2023-02-15T05:17:02.563Z,39.03
2023-02-15T05:18:06.848Z,46.70
2023-02-15T05:19:09.464Z,36.95
2023-02-15T05:20:12.138Z,39.20
2023-02-15T05:21:14.908Z,41.33
2023-02-15T05:22:17.282Z,34.58
2023-02-15T05:23:19.735Z,44.35
2023-02-15T05:24:40.712Z,37.60
2023-02-15T05:27:27.312Z,43.08
2023-02-15T05:28:30.021Z,39.50
2023-02-15T05:29:32.466Z,41.80
2023-02-15T05:30:35.105Z,38.65
2023-02-15T05:31:38.007Z,34.15
2023-02-15T05:32:40.799Z,40.17
2023-02-15T05:33:43.808Z,36.67
2023-02-15T05:34:46.242Z,37.72
2023-02-15T05:35:48.808Z,43.67
2023-02-15T05:36:51.283Z,37.28
2023-02-15T05:37:54.182Z,39.30
2023-02-15T05:38:57.027Z,37.10
2023-02-15T05:39:59.437Z,41.35
2023-02-15T05:41:02.062Z,39.55
2023-02-15T05:42:04.752Z,43.80
2023-02-15T05:43:07.197Z,36.03
2023-02-15T05:44:09.727Z,40.42
2023-02-15T05:45:12.209Z,35.85
2023-02-15T05:46:14.756Z,37.97
2023-02-15T05:47:17.311Z,34.00
2023-02-15T05:48:21.632Z,37.40
2023-02-15T05:49:24.100Z,37.30
2023-02-15T05:50:27.229Z,36.90
2023-02-15T05:51:29.805Z,38.03
2023-02-15T05:52:32.229Z,43.28
2023-02-15T05:53:38.288Z,36.22
2023-02-15T05:54:40.711Z,38.05
2023-02-15T05:55:43.246Z,40.75
2023-02-15T05:56:45.751Z,35.05
2023-02-15T05:57:48.199Z,37.72
2023-02-15T05:58:50.820Z,37.83
2023-02-15T05:59:53.265Z,36.28
2023-02-15T06:00:56.061Z,36.95
2023-02-15T06:01:58.513Z,40.05
2023-02-15T06:03:01.113Z,39.40
2023-02-15T06:04:03.607Z,35.95
2023-02-15T06:05:07.204Z,39.70
2023-02-15T06:06:10.032Z,33.65
2023-02-15T06:07:13.322Z,34.67
2023-02-15T06:08:16.509Z,40.15
2023-02-15T06:09:19.368Z,31.50
2023-02-15T06:10:22.001Z,38.17
2023-02-15T06:11:24.586Z,36.28
2023-02-15T06:12:27.055Z,32.00
2023-02-15T06:13:29.807Z,36.85
2023-02-15T06:14:32.307Z,31.65
2023-02-15T06:15:34.967Z,36.65
2023-02-15T06:16:37.505Z,36.45
2023-02-15T06:17:43.343Z,32.40
2023-02-15T06:18:45.914Z,30.48
2023-02-15T06:19:48.604Z,32.65
2023-02-15T06:20:51.346Z,32.03
2023-02-15T06:21:53.942Z,33.47
2023-02-15T06:22:56.406Z,30.83
2023-02-15T06:23:58.949Z,32.35
2023-02-15T06:25:02.351Z,30.50
2023-02-15T06:26:05.025Z,28.83
2023-02-15T06:27:07.737Z,37.72
2023-02-15T06:28:10.194Z,35.60
2023-02-15T06:29:12.661Z,32.25
2023-02-15T06:30:15.565Z,30.48
2023-02-15T06:31:18.150Z,26.75
2023-02-15T06:32:20.745Z,32.72
2023-02-15T06:33:24.250Z,27.33
2023-02-15T06:34:26.722Z,32.55
2023-02-15T06:35:29.474Z,33.55
2023-02-15T06:36:32.644Z,29.75
2023-02-15T06:37:35.198Z,29.27
2023-02-15T06:38:37.678Z,33.80
2023-02-15T06:39:40.357Z,27.35
2023-02-15T06:40:42.983Z,26.88
2023-02-15T06:41:45.430Z,28.83
2023-02-15T06:42:48.066Z,32.30
2023-02-15T06:43:50.930Z,31.58
2023-02-15T06:44:53.821Z,29.65
2023-02-15T06:45:56.228Z,33.08
2023-02-15T06:46:58.919Z,28.52
2023-02-15T06:48:01.401Z,31.63
2023-02-15T06:49:03.974Z,28.58
2023-02-15T06:50:07.527Z,32.95
2023-02-15T06:51:10.152Z,35.63
2023-02-15T06:52:14.245Z,31.13
2023-02-15T06:53:16.836Z,27.13
2023-02-15T06:54:19.616Z,35.15
2023-02-15T06:55:22.052Z,30.27
2023-02-15T06:56:24.474Z,32.10
2023-02-15T06:57:27.277Z,29.83
2023-02-15T06:58:30.124Z,28.17
2023-02-15T06:59:32.627Z,29.80
2023-02-15T07:00:35.164Z,32.10
2023-02-15T07:01:38.079Z,32.22
2023-02-15T07:02:40.811Z,33.45
2023-02-15T07:03:43.412Z,29.38
2023-02-15T07:04:46.028Z,36.15
2023-02-15T07:05:49.827Z,27.90
2023-02-15T07:06:54.028Z,31.05
2023-02-15T07:07:56.723Z,28.33
2023-02-15T07:08:59.295Z,25.48
2023-02-15T07:10:01.880Z,24.58
2023-02-15T07:11:23.689Z,31.15
2023-02-15T07:12:45.266Z,30.88
2023-02-15T07:13:48.384Z,27.10
2023-02-15T07:14:50.810Z,34.17
2023-02-15T07:15:53.276Z,29.13
2023-02-15T07:16:55.771Z,30.63
2023-02-15T07:18:00.209Z,30.33
2023-02-15T07:19:02.882Z,31.15
2023-02-15T07:20:08.935Z,25.90
2023-02-15T07:21:11.484Z,27.33
2023-02-15T07:22:14.014Z,24.90
2023-02-15T07:23:16.445Z,27.10
2023-02-15T07:24:18.838Z,31.20
2023-02-15T07:25:21.340Z,26.02
2023-02-15T07:26:23.820Z,23.67
2023-02-15T07:27:26.282Z,21.42
2023-02-15T07:28:29.297Z,23.67
2023-02-15T07:29:31.848Z,20.48
2023-02-15T07:30:34.506Z,19.67
2023-02-15T07:31:37.206Z,19.00
2023-02-15T07:32:59.706Z,22.70
2023-02-15T07:34:02.265Z,24.45
2023-02-15T07:35:04.897Z,25.83
2023-02-15T07:36:08.301Z,21.05
2023-02-15T07:37:10.823Z,22.98
2023-02-15T07:38:13.312Z,20.88
2023-02-15T07:39:15.706Z,26.67
2023-02-15T07:40:18.608Z,17.75
2023-02-15T07:41:20.996Z,22.35
2023-02-15T07:42:23.642Z,25.80
2023-02-15T07:43:27.824Z,19.70
2023-02-15T07:44:30.377Z,22.63
2023-02-15T07:45:32.812Z,20.98
2023-02-15T07:46:35.392Z,23.15
2023-02-15T07:47:37.881Z,21.50
2023-02-15T07:48:41.449Z,22.98
2023-02-15T07:49:43.988Z,21.35
2023-02-15T07:50:46.470Z,20.60
2023-02-15T07:51:49.027Z,19.73
2023-02-15T07:52:51.531Z,23.92
2023-02-15T07:53:54.062Z,21.20
2023-02-15T07:54:56.509Z,24.23
2023-02-15T07:56:08.462Z,22.23
2023-02-15T07:57:10.968Z,21.58
2023-02-15T07:58:13.333Z,28.45
2023-02-15T07:59:15.911Z,23.58
2023-02-15T08:00:22.497Z,23.02
2023-02-15T08:01:29.069Z,25.45
2023-02-15T08:02:31.604Z,23.90
2023-02-15T08:03:34.106Z,19.50
2023-02-15T08:04:36.577Z,19.52
2023-02-15T08:05:42.942Z,18.75
2023-02-15T08:06:45.485Z,26.25
2023-02-15T08:07:48.143Z,20.95
2023-02-15T08:08:50.750Z,22.42
2023-02-15T08:09:54.422Z,25.95
2023-02-15T08:11:19.367Z,22.13
2023-02-15T08:12:21.875Z,21.05
2023-02-15T08:13:24.516Z,23.00
2023-02-15T08:14:28.769Z,21.40
2023-02-15T08:15:31.228Z,21.17
2023-02-15T08:16:35.507Z,20.17
2023-02-15T08:17:38.340Z,35.20
2023-02-15T08:18:40.778Z,30.73
2023-02-15T08:19:43.177Z,30.02
2023-02-15T08:20:50.935Z,24.48
2023-02-15T08:21:58.509Z,24.20
2023-02-15T08:23:01.162Z,25.55
2023-02-15T08:24:04.605Z,23.73
2023-02-15T08:25:07.273Z,23.83
2023-02-15T08:26:09.799Z,25.20
2023-02-15T08:27:12.809Z,20.23
2023-02-15T08:28:15.333Z,19.75
2023-02-15T08:29:23.049Z,19.02
2023-02-15T08:30:25.574Z,23.33
2023-02-15T08:31:28.889Z,20.67
2023-02-15T08:32:31.533Z,17.90
2023-02-15T08:33:34.450Z,17.05
2023-02-15T08:34:41.920Z,18.45
2023-02-15T08:35:44.445Z,21.85
2023-02-15T08:36:47.276Z,20.55
2023-02-15T08:37:49.959Z,20.83
2023-02-15T08:38:52.587Z,21.13
2023-02-15T08:39:55.462Z,22.65
2023-02-15T08:40:58.018Z,26.90
2023-02-15T08:42:00.495Z,23.23
2023-02-15T08:43:02.978Z,19.98
2023-02-15T08:44:07.773Z,23.98
2023-02-15T08:45:10.527Z,20.73
2023-02-15T08:46:13.787Z,19.67
2023-02-15T08:47:16.252Z,23.38
2023-02-15T08:48:19.221Z,23.38
2023-02-15T08:49:22.998Z,21.33
2023-02-15T08:50:25.559Z,24.08
2023-02-15T08:51:31.166Z,28.08
2023-02-15T08:52:33.778Z,22.98
2023-02-15T08:53:36.335Z,19.30
2023-02-15T08:54:38.827Z,19.55
2023-02-15T08:55:41.362Z,20.38
2023-02-15T08:56:45.209Z,20.60
2023-02-15T08:57:49.094Z,19.20
2023-02-15T08:58:51.609Z,26.20
2023-02-15T08:59:56.091Z,20.20
2023-02-15T09:00:59.350Z,23.20
2023-02-15T09:02:02.444Z,20.77
2023-02-15T09:03:04.956Z,23.13
2023-02-15T09:04:09.828Z,21.42
2023-02-15T09:05:12.332Z,23.48
2023-02-15T09:06:15.546Z,23.55
2023-02-15T09:07:19.845Z,21.30
2023-02-15T09:08:22.288Z,19.10
2023-02-15T09:09:24.773Z,29.63
2023-02-15T09:10:27.282Z,24.17
2023-02-15T09:11:32.330Z,23.60
2023-02-15T09:12:34.720Z,20.88
2023-02-15T09:13:38.002Z,20.92
2023-02-15T09:14:40.792Z,21.25
2023-02-15T09:15:43.290Z,22.13
2023-02-15T09:16:49.581Z,19.75
2023-02-15T09:17:52.311Z,20.30
2023-02-15T09:18:55.308Z,18.27
2023-02-15T09:19:58.396Z,21.00
2023-02-15T09:21:17.717Z,25.17
2023-02-15T09:22:20.356Z,23.08
2023-02-15T09:23:27.186Z,22.95
2023-02-15T09:24:33.371Z,21.60
2023-02-15T09:25:35.895Z,21.38
2023-02-15T09:26:45.278Z,20.70
2023-02-15T09:27:47.759Z,19.45
2023-02-15T09:28:54.147Z,19.58
2023-02-15T09:29:56.756Z,19.15
2023-02-15T09:31:09.192Z,21.38
2023-02-15T09:32:15.443Z,17.42
2023-02-15T09:33:18.119Z,14.18
2023-02-15T09:34:22.649Z,15.10
2023-02-15T09:35:25.223Z,20.55
2023-02-15T09:36:39.307Z,20.65
2023-02-15T09:37:41.879Z,17.63
2023-02-15T09:38:47.771Z,18.80
2023-02-15T09:39:50.383Z,20.20
2023-02-15T09:41:17.329Z,23.90
2023-02-15T09:42:42.805Z,21.67
2023-02-15T09:44:14.556Z,20.25
2023-02-15T09:45:42.827Z,21.33
2023-02-15T09:47:23.340Z,15.80
2023-02-15T09:48:41.393Z,14.85
2023-02-15T09:50:12.006Z,21.98
2023-02-15T09:51:51.990Z,16.17
2023-02-15T09:53:31.763Z,16.60
2023-02-15T09:54:37.461Z,22.13
2023-02-15T09:55:43.006Z,23.65
2023-02-15T09:57:31.000Z,19.13
2023-02-15T09:58:51.813Z,20.17
2023-02-15T10:00:12.889Z,18.40
2023-02-15T10:01:31.686Z,24.13
2023-02-15T10:02:37.518Z,20.42
2023-02-15T10:03:48.186Z,20.83
2023-02-15T10:05:08.634Z,28.92
2023-02-15T10:06:28.963Z,24.67
2023-02-15T10:07:46.441Z,24.85
2023-02-15T10:08:59.206Z,28.55
2023-02-15T10:10:31.099Z,23.42
2023-02-15T10:11:59.629Z,24.05
2023-02-15T10:13:05.001Z,20.45
2023-02-15T10:15:01.491Z,27.40
2023-02-15T10:16:32.102Z,20.00
2023-02-15T10:17:53.000Z,18.52
2023-02-15T10:19:04.619Z,23.02
2023-02-15T10:20:41.748Z,21.13
2023-02-15T10:21:49.812Z,21.85
2023-02-15T10:23:04.439Z,24.58
2023-02-15T10:24:30.584Z,22.33
2023-02-15T10:26:12.457Z,23.40
2023-02-15T10:27:22.454Z,23.77
2023-02-15T10:28:29.104Z,25.73
2023-02-15T10:29:39.427Z,20.83
2023-02-15T10:30:48.520Z,22.33
2023-02-15T10:32:15.469Z,21.25
2023-02-15T10:33:26.953Z,32.55
2023-02-15T10:34:45.260Z,25.77
2023-02-15T10:36:24.818Z,22.52
2023-02-15T10:38:00.770Z,21.73
2023-02-15T10:39:30.740Z,23.55
2023-02-15T10:40:52.457Z,23.48
2023-02-15T10:42:00.969Z,22.90
2023-02-15T10:43:05.418Z,25.50
2023-02-15T10:44:40.572Z,24.63
2023-02-15T10:46:09.695Z,24.92
2023-02-15T10:47:50.677Z,24.80
2023-02-15T10:49:37.598Z,22.90
2023-02-15T10:51:09.637Z,24.83
2023-02-15T10:52:36.216Z,28.60
2023-02-15T10:54:02.346Z,23.88
2023-02-15T10:55:42.362Z,22.52
2023-02-15T10:56:44.860Z,22.40
2023-02-15T10:58:08.603Z,22.35
2023-02-15T10:59:13.834Z,24.88
2023-02-15T11:00:32.266Z,25.02
2023-02-15T11:01:40.682Z,23.63
2023-02-15T11:02:53.964Z,23.67
2023-02-15T11:04:17.404Z,25.10
2023-02-15T11:05:55.871Z,21.83
2023-02-15T11:07:15.444Z,27.48
2023-02-15T11:08:18.100Z,25.17
2023-02-15T11:09:23.643Z,23.55
2023-02-15T11:10:35.569Z,29.33
2023-02-15T11:11:41.508Z,27.50
2023-02-15T11:12:44.882Z,24.27
2023-02-15T11:13:51.525Z,23.05
2023-02-15T11:15:05.749Z,26.50
2023-02-15T11:16:18.554Z,27.38
2023-02-15T11:17:29.365Z,30.67
2023-02-15T11:18:33.720Z,24.48
2023-02-15T11:19:41.181Z,27.75
2023-02-15T11:21:05.922Z,24.92
2023-02-15T11:22:11.245Z,26.90
2023-02-15T11:23:19.541Z,26.80
2023-02-15T11:24:22.279Z,29.65
2023-02-15T11:25:29.581Z,25.05
2023-02-15T11:26:39.279Z,25.50
2023-02-15T11:27:42.000Z,29.65
2023-02-15T11:28:50.229Z,23.92
2023-02-15T11:30:10.457Z,24.50
2023-02-15T11:31:22.158Z,30.10
2023-02-15T11:32:32.475Z,26.48
2023-02-15T11:33:42.565Z,24.75
2023-02-15T11:35:12.678Z,28.38
2023-02-15T11:36:25.108Z,22.67
2023-02-15T11:37:47.196Z,21.58
2023-02-15T11:38:53.951Z,27.88
2023-02-15T11:39:57.744Z,23.38
2023-02-15T11:41:15.504Z,23.98
2023-02-15T11:42:21.703Z,21.45
2023-02-15T11:43:39.122Z,27.48
2023-02-15T11:45:08.391Z,24.67
2023-02-15T11:46:13.510Z,21.83
2023-02-15T11:47:16.325Z,23.52
2023-02-15T11:48:19.088Z,24.65
2023-02-15T11:49:26.048Z,21.40
2023-02-15T11:50:30.827Z,19.65
2023-02-15T11:51:33.602Z,29.38
2023-02-15T11:52:36.902Z,23.15
2023-02-15T11:53:40.161Z,24.65
2023-02-15T11:54:44.954Z,26.30
2023-02-15T11:55:49.369Z,22.90
2023-02-15T11:56:51.863Z,27.35
2023-02-15T11:58:02.475Z,25.60
2023-02-15T11:59:12.903Z,27.85
2023-02-15T12:00:23.477Z,22.27
2023-02-15T12:02:37.950Z,27.98
2023-02-15T12:03:47.788Z,21.05
2023-02-15T12:04:54.132Z,25.83
2023-02-15T12:06:04.152Z,24.50
2023-02-15T12:07:32.253Z,26.58
2023-02-15T12:08:40.008Z,25.98
2023-02-15T12:09:53.841Z,23.95
2023-02-15T12:11:04.506Z,25.65
2023-02-15T12:13:26.048Z,25.55
2023-02-15T12:14:48.619Z,29.75
2023-02-15T12:15:56.564Z,25.85
2023-02-15T12:16:59.241Z,29.55
2023-02-15T12:18:01.718Z,26.45
2023-02-15T12:19:04.500Z,24.95
2023-02-15T12:20:30.969Z,30.45
2023-02-15T12:21:40.656Z,24.63
2023-02-15T12:23:03.828Z,28.42
2023-02-15T12:24:31.040Z,24.15
2023-02-15T12:25:36.461Z,24.13
2023-02-15T12:26:39.385Z,24.17
2023-02-15T12:27:44.193Z,30.05
2023-02-15T12:28:50.700Z,23.38
2023-02-15T12:29:57.739Z,25.15
2023-02-15T12:31:02.387Z,25.90
2023-02-15T12:32:05.502Z,28.33
2023-02-15T12:33:31.465Z,26.00
2023-02-15T12:34:40.572Z,27.45
2023-02-15T12:35:43.651Z,25.38
2023-02-15T12:36:51.830Z,29.48
2023-02-15T12:37:56.863Z,28.30
2023-02-15T12:39:14.464Z,31.42
2023-02-15T12:40:27.046Z,28.17
2023-02-15T12:41:29.634Z,28.58
2023-02-15T12:42:44.179Z,27.50
2023-02-15T12:43:46.596Z,28.65
2023-02-15T12:45:01.123Z,31.92
2023-02-15T12:46:24.368Z,24.25
2023-02-15T12:47:29.422Z,25.42
2023-02-15T12:48:32.096Z,28.30
2023-02-15T12:49:36.374Z,27.20
2023-02-15T12:50:42.441Z,32.80
2023-02-15T12:51:47.549Z,25.73
2023-02-15T12:52:52.576Z,27.25
2023-02-15T12:53:55.076Z,23.33
2023-02-15T12:55:20.528Z,29.42
2023-02-15T12:56:28.679Z,27.95
2023-02-15T12:57:33.047Z,29.13
2023-02-15T12:58:40.204Z,34.97
2023-02-15T12:59:56.277Z,28.83
2023-02-15T13:01:12.118Z,27.25
2023-02-15T13:02:25.015Z,24.38
2023-02-15T13:03:27.820Z,28.33
2023-02-15T13:04:30.875Z,30.20
2023-02-15T13:05:45.010Z,26.65
2023-02-15T13:06:50.493Z,26.13
2023-02-15T13:07:59.209Z,27.42
2023-02-15T13:09:19.345Z,29.48
2023-02-15T13:10:32.072Z,30.60
2023-02-15T13:11:38.422Z,29.65
2023-02-15T13:12:47.781Z,27.80
2023-02-15T13:13:57.371Z,29.27
2023-02-15T13:15:02.643Z,24.65
2023-02-15T13:16:14.345Z,26.88
2023-02-15T13:17:18.376Z,27.25
2023-02-15T13:18:31.828Z,28.00
2023-02-15T13:19:42.500Z,26.90
2023-02-15T13:21:50.516Z,25.35
2023-02-15T13:23:06.245Z,25.25
2023-02-15T13:24:13.450Z,30.25
2023-02-15T13:25:29.480Z,26.52
2023-02-15T13:26:33.013Z,32.00
2023-02-15T13:27:41.416Z,29.50
2023-02-15T13:28:46.819Z,27.80
2023-02-15T13:30:00.934Z,25.63
2023-02-15T13:31:04.054Z,28.20
2023-02-15T13:32:28.230Z,26.45
2023-02-15T13:33:36.510Z,25.25
2023-02-15T13:34:40.466Z,27.95
2023-02-15T13:36:12.688Z,22.98
2023-02-15T13:37:23.340Z,24.63
2023-02-15T13:39:56.178Z,26.92
2023-02-15T13:41:05.580Z,27.60
2023-02-15T13:42:40.181Z,32.05
2023-02-15T13:44:08.299Z,24.95
2023-02-15T13:45:38.491Z,30.15
2023-02-15T13:46:54.024Z,31.73
2023-02-15T13:48:09.365Z,30.98
2023-02-15T13:49:14.542Z,24.55
2023-02-15T13:50:38.471Z,32.50
2023-02-15T13:52:23.170Z,31.60
2023-02-15T13:53:48.666Z,28.92
2023-02-15T13:55:24.912Z,27.52
2023-02-15T13:56:36.401Z,30.52
2023-02-15T13:58:10.324Z,33.88
2023-02-15T13:59:30.077Z,35.67
2023-02-15T14:00:45.591Z,28.40
2023-02-15T14:02:00.092Z,28.73
2023-02-15T14:03:08.736Z,27.35
2023-02-15T14:04:23.527Z,29.45
2023-02-15T14:05:34.446Z,29.45
2023-02-15T14:07:53.497Z,35.78
2023-02-15T14:09:14.416Z,32.95
2023-02-15T14:11:58.032Z,31.63
2023-02-15T14:13:06.823Z,31.38
2023-02-15T14:14:41.102Z,33.53
2023-02-15T14:15:52.473Z,30.02
2023-02-15T14:17:35.509Z,34.53
2023-02-15T14:18:45.605Z,31.83
2023-02-15T14:20:21.546Z,32.03
2023-02-15T14:21:33.907Z,27.90
2023-02-15T14:22:51.112Z,33.75
2023-02-15T14:24:05.773Z,28.70
2023-02-15T14:25:19.411Z,30.45
2023-02-15T14:26:35.273Z,32.55
2023-02-15T14:27:56.768Z,33.42
2023-02-15T14:29:30.232Z,31.88
2023-02-15T14:30:39.382Z,31.40
2023-02-15T14:31:45.783Z,34.05
2023-02-15T14:32:54.354Z,35.08
2023-02-15T14:33:58.183Z,32.40
2023-02-15T14:35:02.601Z,35.55
2023-02-15T14:36:07.633Z,34.85
2023-02-15T14:37:13.317Z,29.75
2023-02-15T14:38:45.944Z,34.13
2023-02-15T14:40:23.611Z,33.60
2023-02-15T14:41:38.968Z,29.73
2023-02-15T14:42:47.313Z,34.47
2023-02-15T14:44:19.205Z,34.88
2023-02-15T14:45:33.734Z,35.58
2023-02-15T14:46:46.067Z,34.55
2023-02-15T14:47:58.471Z,29.98
2023-02-15T14:49:15.598Z,31.92
2023-02-15T14:50:38.262Z,30.17
2023-02-15T14:51:50.523Z,31.77
2023-02-15T14:53:32.048Z,34.92
2023-02-15T14:54:34.865Z,27.35
2023-02-15T14:55:38.011Z,30.80
2023-02-15T14:56:40.676Z,27.02
2023-02-15T14:57:57.226Z,29.40